Fargo, North Dakota
Current Conditions -  °F | °C
As of 6:53 AM on Tuesday 21 Oct 2014 (Local Time) from KFAR Reporting Station
Clear Clear  
Wind Chill: 37°   Ceiling: Unl
Heat Index: 44°   Visibility: 10mi
Dew Point: 37°   Wind: 14mph
Humidity: 76%   Direction: 140°SE
Pressure: 30.04"   Gusts: NA
Location:  46.88°N, 96.78°W
Report Text: KFAR 211153Z 14012KT 10SM CLR 07/03 A3004 RMK AO2 SLP179 T00670028 10078 20061 58004
Loading
Personal Weather Stations






























Interactive Weather Map
Tropical Storm Tracking
New forecast layout! Learn more

10-Day Weather Forecast

Advertisements
Track Severe Weather on mobile